Overview Statistics Trail Chart Weather Telemetry Raw packets
 

This is the latest recevied telemetry packets stored in our database for station/object OE5HWN-14. If no packets are shown the sender has not sent any telemetry packets the latest 10 day(s).

Telemetry packets is used to share measurements like repeteater parameters, battery voltage, radiation readings (or any other measurements).

<< 1 2 3 4 >>
Time Press* Temp.in* Hum* QNH* Temp.out*
1788567585 983 hPa 20.9 C deg 53.8 % 1013.6 hPa 0 C deg
1788565754 982.8 hPa 21.4 C deg 54.1 % 1013.4 hPa 0 C deg
1788563925 982.7 hPa 21.7 C deg 53.3 % 1013.2 hPa 0 C deg
1788562091 982.5 hPa 21.8 C deg 51.8 % 1013 hPa 0 C deg
1788560264 982.2 hPa 21.2 C deg 52.9 % 1012.8 hPa 0 C deg
1788558442 982 hPa 21.7 C deg 53.8 % 1012.5 hPa 0 C deg
1788556626 982 hPa 22.4 C deg 52.3 % 1012.5 hPa 0 C deg
1788554770 982 hPa 22.7 C deg 53.3 % 1012.4 hPa 0 C deg
1788552556 981.8 hPa 22.9 C deg 53.1 % 981.8 hPa 0 C deg
1788552358 981.8 hPa 23.1 C deg 52.8 % 1012.1 hPa 0 C deg
1788550547 981.7 hPa 23.5 C deg 50.6 % 1011.9 hPa 0 C deg
1788548708 981.4 hPa 24.5 C deg 48.8 % 1011.5 hPa 0 C deg
1788543228 980.4 hPa 27.8 C deg 40.1 % 1010.2 hPa 0 C deg
1788541397 980.7 hPa 28.5 C deg 38.3 % 1010.3 hPa 0 C deg
1788537725 981.2 hPa 28.9 C deg 36.6 % 1010.9 hPa 0 C deg
1788535902 981.6 hPa 28.8 C deg 37 % 1011.2 hPa 0 C deg
1788534059 982 hPa 28.8 C deg 37.2 % 1011.7 hPa 0 C deg
1788530404 982.8 hPa 29.4 C deg 37.1 % 1012.4 hPa 0 C deg
1788528582 983.2 hPa 29.5 C deg 36.9 % 1012.8 hPa 0 C deg
1788526740 983.7 hPa 29.7 C deg 37.2 % 1013.4 hPa 0 C deg
1788524937 984.5 hPa 30.3 C deg 37.4 % 1014 hPa 0 C deg
1788523084 985 hPa 30.3 C deg 35.6 % 1014.6 hPa 0 C deg
1788521254 985.4 hPa 30.9 C deg 36.5 % 1015 hPa 0 C deg
1788519419 986.1 hPa 30.2 C deg 38.8 % 1015.7 hPa 0 C deg
1788517592 986.7 hPa 30.7 C deg 38 % 1016.3 hPa 0 C deg
*Used Equation Coefficients:
Press: 0, 1, 0
Temp.in: 0, 1, 0
Hum: 0, 1, 0
QNH: 0, 1, 0
Temp.out: 0, 1, 0

  • The parameter names for the analog channels will be Value1, Value2, Value3 (up to Value5) if station has not sent a PARAM-packet that specifies the parameter names for each analog channel.
  • Each analog value is a decimal number between 000 and 255 (according to APRS specifications). The receiver use the telemetry equation coefficientsto to restore the original sensor values. If no EQNS-packet with equation coefficients is sent we will show the values as is (this corresponds to the equation coefficients a=0, b=1 and c=0).
    The sent equation coefficients is used in the equation: a * value2 + b * value + c.
  • The units for the analog values will not be shown if station has not sent a UNIT-packet specifying what unit's to use.
  • The parameter names for the digital bits will be Bit1, Bit2, Bit3 (up to Bit8) if station has not sent a PARAM-packet that specifies the parameter names for each digital bit.
  • All bit labels will be named "On" if station has not sent a UNIT-packet that specifies the label of each bit.
  • A bit is considered to be On when the bit is 1 if station has not sent a BITS-packet that specifies another "Bit sense" (a BITS-packet specify the state of the bits that match the BIT labels)